Time,TemperatureF,DewpointF,PressureIn,WindDirection,WindDirectionDegrees,WindSpeedMPH,WindSpeedGustMPH,Humidity,HourlyPrecipIn,Conditions,Clouds,dailyrainin,SoftwareType,DateUTC
2016-09-28 00:04:00,65.6,58.2,30.26,SSW,194,6.9,6.9,77,0.00,CLR,,0.00,WeatherDisplay:10.37,2016-09-27 22:04:00,
2016-09-28 00:09:00,65.5,58.8,30.27,SW,214,8.1,8.1,79,0.00,CLR,,0.00,WeatherDisplay:10.37,2016-09-27 22:09:00,
2016-09-28 00:14:00,65.4,59.1,30.26,SW,220,13.8,13.8,80,0.00,CLR,,0.00,WeatherDisplay:10.37,2016-09-27 22:14:00,
2016-09-28 00:19:00,65.1,59.1,30.26,SW,221,10.4,10.4,81,0.00,CLR,,0.00,WeatherDisplay:10.37,2016-09-27 22:19:00,
2016-09-28 00:24:00,64.7,59.4,30.26,SSW,203,7.0,7.4,83,0.00,CLR,,0.00,WeatherDisplay:10.37,2016-09-27 22:24:00,
2016-09-28 00:29:00,64.1,59.2,30.26,SSW,209,5.8,5.8,84,0.01,RA,,0.01,WeatherDisplay:10.37,2016-09-27 22:29:00,
2016-09-28 00:34:00,63.7,59.1,30.26,SW,233,9.0,9.0,85,0.01,RA,,0.01,WeatherDisplay:10.37,2016-09-27 22:34:00,
2016-09-28 00:39:00,63.7,59.8,30.26,SW,226,8.1,8.1,87,0.01,,,0.01,WeatherDisplay:10.37,2016-09-27 22:39:00,
2016-09-28 00:44:00,64.1,60.8,30.25,SW,218,15.0,15.0,89,0.02,RA,,0.02,WeatherDisplay:10.37,2016-09-27 22:44:00,
2016-09-28 00:54:00,64.4,61.4,30.25,SW,232,16.1,16.1,90,0.02,,,0.02,WeatherDisplay:10.37,2016-09-27 22:54:00,
2016-09-28 00:59:00,64.5,61.5,30.25,SW,217,11.5,11.5,90,0.02,,,0.02,WeatherDisplay:10.37,2016-09-27 22:59:00,
2016-09-28 01:04:00,64.6,61.9,30.25,SW,223,9.2,9.2,91,0.02,,,0.02,WeatherDisplay:10.37,2016-09-27 23:04:00,
2016-09-28 01:09:00,64.6,61.9,30.25,WSW,257,16.0,16.0,91,0.02,,,0.02,WeatherDisplay:10.37,2016-09-27 23:09:00,
2016-09-28 01:14:00,64.0,61.3,30.25,SW,233,13.8,13.8,91,0.02,RA,,0.02,WeatherDisplay:10.37,2016-09-27 23:14:00,
2016-09-28 01:19:00,63.9,61.2,30.24,West,259,11.5,11.5,91,0.02,RA,,0.02,WeatherDisplay:10.37,2016-09-27 23:19:00,
2016-09-28 01:24:00,63.9,61.2,30.24,SW,220,16.1,16.1,91,0.02,,,0.02,WeatherDisplay:10.37,2016-09-27 23:24:00,
2016-09-28 01:29:00,64.0,61.3,30.24,West,267,15.0,15.0,91,0.02,,,0.02,WeatherDisplay:10.37,2016-09-27 23:29:00,
2016-09-28 01:39:00,64.1,61.1,30.25,WSW,246,10.4,10.4,90,0.02,,,0.02,WeatherDisplay:10.37,2016-09-27 23:39:00,
2016-09-28 01:44:00,64.2,61.2,30.24,SW,225,17.3,17.3,90,0.01,,,0.02,WeatherDisplay:10.37,2016-09-27 23:44:00,
2016-09-28 01:49:00,64.3,61.0,30.24,SW,233,11.5,11.5,89,0.01,,,0.02,WeatherDisplay:10.37,2016-09-27 23:49:00,
2016-09-28 01:54:00,64.4,61.1,30.24,SW,231,11.5,11.5,89,0.01,,,0.02,WeatherDisplay:10.37,2016-09-27 23:54:00,
2016-09-28 01:59:00,64.6,61.3,30.25,WSW,251,11.5,11.5,89,0.01,,,0.02,WeatherDisplay:10.37,2016-09-27 23:59:00,
2016-09-28 02:04:00,64.7,61.4,30.25,WSW,250,8.1,8.1,89,0.01,,,0.02,WeatherDisplay:10.37,2016-09-28 00:04:00,
2016-09-28 02:10:00,64.8,61.5,30.24,WSW,239,13.0,13.0,89,0.01,,,0.02,WeatherDisplay:10.37,2016-09-28 00:10:00,
2016-09-28 02:15:00,64.9,61.6,30.24,SW,224,13.8,13.8,89,0.00,CLR,,0.02,WeatherDisplay:10.37,2016-09-28 00:15:00,
2016-09-28 02:20:00,64.9,61.9,30.25,SW,215,8.0,8.0,90,0.00,CLR,,0.02,WeatherDisplay:10.37,2016-09-28 00:20:00,
2016-09-28 02:25:00,64.8,61.8,30.24,SW,219,11.5,11.5,90,0.00,CLR,,0.02,WeatherDisplay:10.37,2016-09-28 00:25:00,
2016-09-28 02:30:00,64.8,61.8,30.24,SSW,212,11.5,11.5,90,0.00,CLR,,0.02,WeatherDisplay:10.37,2016-09-28 00:30:00,
2016-09-28 02:35:00,64.8,61.8,30.24,SW,220,9.2,9.2,90,0.00,CLR,,0.02,WeatherDisplay:10.37,2016-09-28 00:35:00,
2016-09-28 02:40:00,64.8,61.8,30.24,SW,215,11.5,11.5,90,0.00,CLR,,0.02,WeatherDisplay:10.37,2016-09-28 00:40:00,
2016-09-28 02:45:00,64.8,61.8,30.23,SW,227,17.0,17.0,90,0.00,CLR,,0.02,WeatherDisplay:10.37,2016-09-28 00:45:00,
2016-09-28 02:50:00,64.8,61.8,30.23,SSW,205,8.1,8.1,90,0.00,CLR,,0.02,WeatherDisplay:10.37,2016-09-28 00:50:00,
2016-09-28 03:00:00,64.7,62.0,30.23,SSW,210,11.0,11.0,91,0.00,CLR,,0.02,WeatherDisplay:10.37,2016-09-28 01:00:00,
2016-09-28 03:05:00,64.7,62.0,30.23,SSW,212,8.1,8.1,91,0.00,CLR,,0.02,WeatherDisplay:10.37,2016-09-28 01:05:00,
2016-09-28 03:20:00,64.9,62.2,30.23,SSW,200,10.4,10.4,91,0.00,CLR,,0.02,WeatherDisplay:10.37,2016-09-28 01:20:00,
2016-09-28 03:25:00,64.9,62.2,30.23,SW,215,10.4,10.4,91,0.00,CLR,,0.02,WeatherDisplay:10.37,2016-09-28 01:25:00,
2016-09-28 03:35:00,64.9,62.2,30.24,West,259,11.5,11.5,91,0.00,CLR,,0.02,WeatherDisplay:10.37,2016-09-28 01:35:00,
2016-09-28 03:40:00,65.0,62.3,30.24,SSW,213,10.4,10.4,91,0.00,CLR,,0.02,WeatherDisplay:10.37,2016-09-28 01:40:00,
2016-09-28 03:45:00,65.0,62.3,30.23,SW,215,11.5,11.5,91,0.00,CLR,,0.02,WeatherDisplay:10.37,2016-09-28 01:45:00,
2016-09-28 03:50:00,65.1,62.4,30.23,SW,223,13.8,13.8,91,0.00,CLR,,0.02,WeatherDisplay:10.37,2016-09-28 01:50:00,
2016-09-28 03:55:00,65.1,62.4,30.23,WSW,252,12.7,12.7,91,0.00,CLR,,0.02,WeatherDisplay:10.37,2016-09-28 01:55:00,
2016-09-28 04:05:00,65.2,62.2,30.22,SW,234,15.0,15.0,90,0.00,CLR,,0.02,WeatherDisplay:10.37,2016-09-28 02:05:00,
2016-09-28 04:10:00,65.3,62.3,30.22,SW,232,12.7,12.7,90,0.00,CLR,,0.02,WeatherDisplay:10.37,2016-09-28 02:10:00,
2016-09-28 04:15:00,65.4,62.4,30.22,SW,232,13.8,13.8,90,0.00,CLR,,0.02,WeatherDisplay:10.37,2016-09-28 02:15:00,
2016-09-28 04:20:00,65.4,62.4,30.22,SW,222,12.7,12.7,90,0.00,CLR,,0.02,WeatherDisplay:10.37,2016-09-28 02:20:00,
2016-09-28 04:25:00,65.3,62.3,30.22,SW,224,15.0,15.0,90,0.00,CLR,,0.02,WeatherDisplay:10.37,2016-09-28 02:25:00,
2016-09-28 04:30:00,65.3,62.3,30.21,SW,235,11.5,11.5,90,0.00,CLR,,0.02,WeatherDisplay:10.37,2016-09-28 02:30:00,
2016-09-28 04:35:00,65.3,62.3,30.21,SSW,212,11.5,11.5,90,0.00,CLR,,0.02,WeatherDisplay:10.37,2016-09-28 02:35:00,
2016-09-28 04:40:00,65.3,62.3,30.21,SSW,211,13.8,13.8,90,0.00,CLR,,0.02,WeatherDisplay:10.37,2016-09-28 02:40:00,
2016-09-28 04:45:00,65.3,62.3,30.21,SW,217,8.1,8.1,90,0.00,CLR,,0.02,WeatherDisplay:10.37,2016-09-28 02:45:00,
2016-09-28 04:50:00,65.2,62.2,30.21,WSW,240,16.1,16.1,90,0.00,CLR,,0.02,WeatherDisplay:10.37,2016-09-28 02:50:00,
2016-09-28 04:55:00,65.1,62.1,30.21,SW,221,11.5,11.5,90,0.00,CLR,,0.02,WeatherDisplay:10.37,2016-09-28 02:55:00,
2016-09-28 05:00:00,65.1,62.1,30.21,WSW,238,11.5,11.5,90,0.00,CLR,,0.02,WeatherDisplay:10.37,2016-09-28 03:00:00,
2016-09-28 05:05:00,65.1,62.1,30.21,SW,224,10.4,10.4,90,0.00,CLR,,0.02,WeatherDisplay:10.37,2016-09-28 03:05:00,
2016-09-28 05:10:00,65.1,62.1,30.22,SW,217,9.2,9.2,90,0.00,CLR,,0.02,WeatherDisplay:10.37,2016-09-28 03:10:00,
2016-09-28 05:15:00,65.0,62.3,30.22,West,273,10.0,10.0,91,0.00,CLR,,0.02,WeatherDisplay:10.37,2016-09-28 03:15:00,
2016-09-28 05:25:00,65.2,62.5,30.22,SW,228,11.5,11.5,91,0.00,CLR,,0.02,WeatherDisplay:10.37,2016-09-28 03:25:00,
2016-09-28 05:30:00,65.2,62.2,30.22,West,274,12.7,12.7,90,0.00,CLR,,0.02,WeatherDisplay:10.37,2016-09-28 03:30:00,
2016-09-28 05:35:00,65.2,62.2,30.22,WSW,243,13.8,13.8,90,0.00,CLR,,0.02,WeatherDisplay:10.37,2016-09-28 03:35:00,
2016-09-28 05:40:00,65.2,62.2,30.22,West,262,8.1,8.1,90,0.00,CLR,,0.02,WeatherDisplay:10.37,2016-09-28 03:40:00,
2016-09-28 05:45:00,65.2,61.9,30.22,West,265,17.3,17.3,89,0.00,CLR,,0.02,WeatherDisplay:10.37,2016-09-28 03:45:00,
2016-09-28 05:50:00,65.3,62.0,30.21,SW,229,14.0,14.0,89,0.00,CLR,,0.02,WeatherDisplay:10.37,2016-09-28 03:50:00,
2016-09-28 05:55:00,65.3,62.0,30.22,WSW,250,17.3,17.3,89,0.00,CLR,,0.02,WeatherDisplay:10.37,2016-09-28 03:55:00,
2016-09-28 06:00:00,65.3,62.0,30.22,West,271,17.3,17.3,89,0.00,CLR,,0.02,WeatherDisplay:10.37,2016-09-28 04:00:00,
2016-09-28 06:05:00,65.3,62.0,30.22,WSW,250,19.6,19.6,89,0.00,CLR,,0.02,WeatherDisplay:10.37,2016-09-28 04:05:00,
2016-09-28 06:15:00,65.4,62.1,30.22,WSW,239,15.0,15.0,89,0.00,CLR,,0.02,WeatherDisplay:10.37,2016-09-28 04:15:00,
2016-09-28 06:25:00,65.4,62.1,30.22,WNW,284,20.0,20.0,89,0.00,CLR,,0.02,WeatherDisplay:10.37,2016-09-28 04:25:00,
2016-09-28 06:30:00,65.3,62.0,30.22,West,275,17.3,17.3,89,0.00,CLR,,0.02,WeatherDisplay:10.37,2016-09-28 04:30:00,
2016-09-28 06:36:00,65.3,62.0,30.22,West,275,18.4,18.4,89,0.00,CLR,,0.02,WeatherDisplay:10.37,2016-09-28 04:36:00,
2016-09-28 06:41:00,65.3,62.0,30.22,West,262,18.0,18.0,89,0.00,CLR,,0.02,WeatherDisplay:10.37,2016-09-28 04:41:00,
2016-09-28 06:46:00,65.2,61.9,30.22,SW,236,23.0,23.0,89,0.00,CLR,,0.02,WeatherDisplay:10.37,2016-09-28 04:46:00,
2016-09-28 06:51:00,65.3,62.0,30.22,WSW,244,17.3,17.3,89,0.00,CLR,,0.02,WeatherDisplay:10.37,2016-09-28 04:51:00,
2016-09-28 06:55:00,65.3,62.0,30.23,WSW,249,19.6,19.6,89,0.00,CLR,,0.02,WeatherDisplay:10.37,2016-09-28 04:55:00,
2016-09-28 07:00:00,65.3,62.0,30.23,WSW,246,12.7,12.7,89,0.00,CLR,,0.02,WeatherDisplay:10.37,2016-09-28 05:00:00,
2016-09-28 07:05:00,65.3,62.0,30.23,WSW,258,18.4,18.4,89,0.00,CLR,,0.02,WeatherDisplay:10.37,2016-09-28 05:05:00,
2016-09-28 07:10:00,65.3,62.0,30.23,WSW,246,19.6,19.6,89,0.00,CLR,,0.02,WeatherDisplay:10.37,2016-09-28 05:10:00,
2016-09-28 07:15:00,65.4,62.1,30.23,West,269,15.0,15.0,89,0.00,CLR,,0.02,WeatherDisplay:10.37,2016-09-28 05:15:00,
2016-09-28 07:20:00,65.3,62.0,30.23,West,267,19.6,19.6,89,0.00,CLR,,0.02,WeatherDisplay:10.37,2016-09-28 05:20:00,
2016-09-28 07:25:00,65.3,61.7,30.23,WSW,241,15.0,15.0,88,0.00,CLR,,0.02,WeatherDisplay:10.37,2016-09-28 05:25:00,
2016-09-28 07:30:00,65.3,61.7,30.23,West,264,18.4,18.4,88,0.00,CLR,,0.02,WeatherDisplay:10.37,2016-09-28 05:30:00,
2016-09-28 07:35:00,65.2,61.2,30.23,West,271,20.7,20.7,87,0.00,CLR,,0.02,WeatherDisplay:10.37,2016-09-28 05:35:00,
2016-09-28 07:40:00,65.0,61.0,30.23,SW,232,17.3,17.3,87,0.00,CLR,,0.02,WeatherDisplay:10.37,2016-09-28 05:40:00,
2016-09-28 07:50:00,65.0,61.0,30.22,West,275,19.6,19.6,87,0.00,CLR,,0.02,WeatherDisplay:10.37,2016-09-28 05:50:00,
2016-09-28 07:55:00,64.9,60.6,30.22,West,276,16.1,16.1,86,0.00,CLR,,0.02,WeatherDisplay:10.37,2016-09-28 05:55:00,
2016-09-28 08:05:00,64.8,60.5,30.23,West,273,19.6,19.6,86,0.00,CLR,,0.02,WeatherDisplay:10.37,2016-09-28 06:05:00,
2016-09-28 08:10:00,64.8,60.2,30.23,WSW,253,21.9,21.9,85,0.00,CLR,,0.02,WeatherDisplay:10.37,2016-09-28 06:10:00,
2016-09-28 08:20:00,65.0,59.7,30.24,West,266,12.7,12.7,83,0.00,CLR,,0.02,WeatherDisplay:10.37,2016-09-28 06:20:00,
2016-09-28 08:25:00,65.0,59.7,30.24,West,259,11.5,11.5,83,0.00,CLR,,0.02,WeatherDisplay:10.37,2016-09-28 06:25:00,
2016-09-28 08:30:00,65.0,60.0,30.23,WSW,248,17.0,17.0,84,0.00,CLR,,0.02,WeatherDisplay:10.37,2016-09-28 06:30:00,
2016-09-28 08:35:00,65.0,59.7,30.23,SW,225,16.1,16.1,83,0.00,CLR,,0.02,WeatherDisplay:10.37,2016-09-28 06:35:00,
2016-09-28 08:40:00,65.1,59.8,30.22,SW,223,19.6,19.6,83,0.00,CLR,,0.02,WeatherDisplay:10.37,2016-09-28 06:40:00,
2016-09-28 08:45:00,65.1,59.5,30.23,WSW,252,15.0,15.0,82,0.00,CLR,,0.02,WeatherDisplay:10.37,2016-09-28 06:45:00,
2016-09-28 08:50:00,65.3,59.7,30.23,West,265,17.3,17.3,82,0.00,CLR,,0.02,WeatherDisplay:10.37,2016-09-28 06:50:00,
2016-09-28 08:55:00,65.3,59.3,30.23,SW,231,20.7,20.7,81,0.00,CLR,,0.02,WeatherDisplay:10.37,2016-09-28 06:55:00,
2016-09-28 09:00:00,65.3,59.3,30.23,WSW,243,16.1,16.1,81,0.00,CLR,,0.02,WeatherDisplay:10.37,2016-09-28 07:00:00,
2016-09-28 09:05:00,65.4,59.1,30.24,WNW,287,13.8,13.8,80,0.00,CLR,,0.02,WeatherDisplay:10.37,2016-09-28 07:05:00,
2016-09-28 09:10:00,65.5,59.5,30.23,West,271,19.6,19.6,81,0.00,CLR,,0.02,WeatherDisplay:10.37,2016-09-28 07:10:00,
2016-09-28 09:15:00,65.6,59.6,30.23,WSW,258,18.4,18.4,81,0.00,CLR,,0.02,WeatherDisplay:10.37,2016-09-28 07:15:00,
2016-09-28 09:20:00,65.5,59.5,30.23,West,261,11.5,11.5,81,0.00,CLR,,0.02,WeatherDisplay:10.37,2016-09-28 07:20:00,
2016-09-28 09:25:00,65.7,60.1,30.24,West,270,17.0,17.0,82,0.00,CLR,,0.02,WeatherDisplay:10.37,2016-09-28 07:25:00,
2016-09-28 09:30:00,65.6,60.0,30.24,WSW,244,17.3,17.3,82,0.00,CLR,,0.02,WeatherDisplay:10.37,2016-09-28 07:30:00,
2016-09-28 09:35:00,65.4,59.8,30.24,SW,223,18.0,18.0,82,0.00,CLR,,0.02,WeatherDisplay:10.37,2016-09-28 07:35:00,
2016-09-28 09:40:00,65.4,59.8,30.24,SSW,210,16.1,16.1,82,0.00,CLR,,0.02,WeatherDisplay:10.37,2016-09-28 07:40:00,
2016-09-28 09:45:00,65.5,59.9,30.24,WSW,241,19.6,19.6,82,0.00,CLR,,0.02,WeatherDisplay:10.37,2016-09-28 07:45:00,
2016-09-28 09:50:00,65.6,59.6,30.24,WSW,244,11.5,11.5,81,0.00,CLR,,0.02,WeatherDisplay:10.37,2016-09-28 07:50:00,
2016-09-28 09:55:00,65.7,59.7,30.24,SW,221,18.4,18.4,81,0.00,CLR,,0.02,WeatherDisplay:10.37,2016-09-28 07:55:00,
2016-09-28 10:00:00,65.9,59.9,30.24,West,263,16.1,16.1,81,0.00,CLR,,0.02,WeatherDisplay:10.37,2016-09-28 08:00:00,
2016-09-28 10:05:00,66.1,59.7,30.24,WSW,250,13.8,13.8,80,0.00,CLR,,0.02,WeatherDisplay:10.37,2016-09-28 08:05:00,
2016-09-28 10:10:00,66.2,59.8,30.24,WSW,242,16.1,16.1,80,0.00,CLR,,0.02,WeatherDisplay:10.37,2016-09-28 08:10:00,
2016-09-28 10:15:00,66.3,59.6,30.24,WSW,248,16.1,16.1,79,0.00,CLR,,0.02,WeatherDisplay:10.37,2016-09-28 08:15:00,
2016-09-28 10:21:00,66.4,60.0,30.25,WSW,242,17.3,17.3,80,0.00,CLR,,0.02,WeatherDisplay:10.37,2016-09-28 08:21:00,
2016-09-28 10:26:00,66.6,60.2,30.25,SW,225,15.0,15.0,80,0.00,CLR,,0.02,WeatherDisplay:10.37,2016-09-28 08:26:00,
2016-09-28 10:31:00,66.8,60.1,30.25,WSW,242,12.7,12.7,79,0.00,CLR,,0.02,WeatherDisplay:10.37,2016-09-28 08:31:00,
2016-09-28 10:36:00,66.9,60.2,30.25,SW,232,19.6,19.6,79,0.00,CLR,,0.02,WeatherDisplay:10.37,2016-09-28 08:36:00,
2016-09-28 10:41:00,67.0,60.6,30.25,WSW,247,11.5,11.5,80,0.00,CLR,,0.02,WeatherDisplay:10.37,2016-09-28 08:41:00,
2016-09-28 10:46:00,66.9,60.2,30.25,WSW,252,11.5,11.5,79,0.00,CLR,,0.02,WeatherDisplay:10.37,2016-09-28 08:46:00,
2016-09-28 10:51:00,66.9,60.2,30.26,SSW,210,17.3,17.3,79,0.00,CLR,,0.02,WeatherDisplay:10.37,2016-09-28 08:51:00,
2016-09-28 10:56:00,67.1,60.4,30.26,West,260,15.0,15.0,79,0.00,CLR,,0.02,WeatherDisplay:10.37,2016-09-28 08:56:00,
2016-09-28 11:01:00,67.2,60.1,30.26,West,259,16.1,16.1,78,0.00,CLR,,0.02,WeatherDisplay:10.37,2016-09-28 09:01:00,
2016-09-28 11:06:00,67.2,60.5,30.26,WSW,250,13.8,13.8,79,0.00,CLR,,0.02,WeatherDisplay:10.37,2016-09-28 09:06:00,
2016-09-28 11:16:00,67.1,60.0,30.26,WSW,237,15.0,15.0,78,0.00,CLR,,0.02,WeatherDisplay:10.37,2016-09-28 09:16:00,
2016-09-28 11:21:00,67.1,59.6,30.26,SSW,205,12.7,12.7,77,0.00,CLR,,0.02,WeatherDisplay:10.37,2016-09-28 09:21:00,
2016-09-28 11:26:00,67.3,60.2,30.26,West,266,12.7,12.7,78,0.00,CLR,,0.02,WeatherDisplay:10.37,2016-09-28 09:26:00,
2016-09-28 11:31:00,67.4,59.6,30.26,WSW,238,16.1,16.1,76,0.00,CLR,,0.02,WeatherDisplay:10.37,2016-09-28 09:31:00,
2016-09-28 11:36:00,67.4,59.9,30.26,WSW,252,21.9,21.9,77,0.00,CLR,,0.02,WeatherDisplay:10.37,2016-09-28 09:36:00,
2016-09-28 11:41:00,67.4,59.9,30.26,West,271,15.0,15.0,77,0.00,CLR,,0.02,WeatherDisplay:10.37,2016-09-28 09:41:00,
2016-09-28 11:51:00,67.6,60.1,30.26,WNW,285,16.1,16.1,77,0.00,CLR,,0.02,WeatherDisplay:10.37,2016-09-28 09:51:00,
2016-09-28 11:56:00,67.7,59.1,30.26,WSW,245,18.0,18.0,74,0.00,CLR,,0.02,WeatherDisplay:10.37,2016-09-28 09:56:00,
2016-09-28 12:01:00,67.5,59.3,30.26,WSW,251,19.6,19.6,75,0.00,CLR,,0.02,WeatherDisplay:10.37,2016-09-28 10:01:00,
2016-09-28 12:06:00,67.6,59.4,30.26,West,273,16.1,16.1,75,0.00,CLR,,0.02,WeatherDisplay:10.37,2016-09-28 10:06:00,
2016-09-28 12:11:00,67.6,59.4,30.25,West,259,18.4,18.4,75,0.00,CLR,,0.02,WeatherDisplay:10.37,2016-09-28 10:11:00,
2016-09-28 12:16:00,67.7,59.9,30.25,WSW,240,12.7,12.7,76,0.00,CLR,,0.02,WeatherDisplay:10.37,2016-09-28 10:16:00,
2016-09-28 12:21:00,67.9,59.7,30.25,SW,230,17.3,17.3,75,0.00,CLR,,0.02,WeatherDisplay:10.37,2016-09-28 10:21:00,
2016-09-28 12:31:00,68.0,59.4,30.25,WSW,258,11.5,11.5,74,0.00,CLR,,0.02,WeatherDisplay:10.37,2016-09-28 10:31:00,
2016-09-28 12:36:00,68.0,59.0,30.25,West,259,19.6,19.6,73,0.00,CLR,,0.02,WeatherDisplay:10.37,2016-09-28 10:36:00,
2016-09-28 12:41:00,68.0,59.0,30.25,West,279,13.8,13.8,73,0.00,CLR,,0.02,WeatherDisplay:10.37,2016-09-28 10:41:00,
2016-09-28 12:46:00,68.1,59.1,30.25,West,266,16.1,16.1,73,0.00,CLR,,0.02,WeatherDisplay:10.37,2016-09-28 10:46:00,
2016-09-28 12:51:00,68.4,59.4,30.25,WSW,244,17.3,17.3,73,0.00,CLR,,0.02,WeatherDisplay:10.37,2016-09-28 10:51:00,
2016-09-28 12:56:00,68.3,58.9,30.25,WSW,240,16.1,16.1,72,0.00,CLR,,0.02,WeatherDisplay:10.37,2016-09-28 10:56:00,
2016-09-28 13:01:00,68.4,59.0,30.25,SW,221,12.7,12.7,72,0.00,CLR,,0.02,WeatherDisplay:10.37,2016-09-28 11:01:00,
2016-09-28 13:06:00,68.3,58.9,30.25,West,275,16.1,16.1,72,0.00,CLR,,0.02,WeatherDisplay:10.37,2016-09-28 11:06:00,
2016-09-28 13:11:00,68.5,59.5,30.25,WSW,247,16.1,16.1,73,0.00,CLR,,0.02,WeatherDisplay:10.37,2016-09-28 11:11:00,
2016-09-28 13:16:00,68.3,58.1,30.25,SW,218,16.1,16.1,70,0.00,CLR,,0.02,WeatherDisplay:10.37,2016-09-28 11:16:00,
2016-09-28 13:21:00,68.3,58.9,30.25,WSW,258,16.1,16.1,72,0.00,CLR,,0.02,WeatherDisplay:10.37,2016-09-28 11:21:00,
2016-09-28 13:26:00,68.3,58.9,30.25,West,261,18.4,18.4,72,0.00,CLR,,0.02,WeatherDisplay:10.37,2016-09-28 11:26:00,
2016-09-28 13:36:00,68.3,58.5,30.25,SW,218,14.0,14.0,71,0.00,CLR,,0.02,WeatherDisplay:10.37,2016-09-28 11:36:00,
2016-09-28 13:41:00,68.1,58.7,30.25,WSW,243,17.3,17.3,72,0.00,CLR,,0.02,WeatherDisplay:10.37,2016-09-28 11:41:00,
2016-09-28 13:46:00,68.0,58.6,30.25,WSW,248,19.6,19.6,72,0.00,CLR,,0.02,WeatherDisplay:10.37,2016-09-28 11:46:00,
2016-09-28 13:51:00,68.0,58.6,30.25,WSW,246,15.0,15.0,72,0.00,CLR,,0.02,WeatherDisplay:10.37,2016-09-28 11:51:00,
2016-09-28 13:56:00,68.0,57.8,30.25,WSW,244,21.9,21.9,70,0.00,CLR,,0.02,WeatherDisplay:10.37,2016-09-28 11:56:00,
2016-09-28 14:01:00,67.8,58.4,30.25,WSW,248,19.6,19.6,72,0.00,CLR,,0.02,WeatherDisplay:10.37,2016-09-28 12:01:00,
2016-09-28 14:06:00,68.3,58.9,30.25,WSW,242,20.0,20.0,72,0.00,CLR,,0.02,WeatherDisplay:10.37,2016-09-28 12:06:00,
2016-09-28 14:11:00,68.6,59.2,30.25,WSW,257,19.6,19.6,72,0.00,CLR,,0.02,WeatherDisplay:10.37,2016-09-28 12:11:00,
2016-09-28 14:16:00,68.4,58.6,30.25,WSW,254,23.0,23.0,71,0.00,CLR,,0.02,WeatherDisplay:10.37,2016-09-28 12:16:00,
2016-09-28 14:21:00,68.4,59.0,30.25,SW,234,15.0,15.0,72,0.00,CLR,,0.02,WeatherDisplay:10.37,2016-09-28 12:21:00,
2016-09-28 14:26:00,68.7,59.7,30.25,WSW,242,15.0,15.0,73,0.00,CLR,,0.02,WeatherDisplay:10.37,2016-09-28 12:26:00,
2016-09-28 14:31:00,68.6,59.6,30.25,WSW,244,19.6,19.6,73,0.00,CLR,,0.02,WeatherDisplay:10.37,2016-09-28 12:31:00,
2016-09-28 14:36:00,68.8,60.2,30.25,WSW,247,13.8,13.8,74,0.00,CLR,,0.02,WeatherDisplay:10.37,2016-09-28 12:36:00,
2016-09-28 14:41:00,69.0,60.0,30.25,WSW,246,17.3,17.3,73,0.00,CLR,,0.02,WeatherDisplay:10.37,2016-09-28 12:41:00,
2016-09-28 14:46:00,68.9,60.3,30.25,WSW,253,21.9,21.9,74,0.00,CLR,,0.02,WeatherDisplay:10.37,2016-09-28 12:46:00,
2016-09-28 14:51:00,68.4,59.4,30.25,WSW,239,17.3,17.3,73,0.00,CLR,,0.02,WeatherDisplay:10.37,2016-09-28 12:51:00,
2016-09-28 15:01:00,68.3,60.1,30.25,SW,232,19.6,19.6,75,0.00,CLR,,0.02,WeatherDisplay:10.37,2016-09-28 13:01:00,
2016-09-28 15:06:00,68.5,60.6,30.25,SSW,203,15.0,15.0,76,0.00,CLR,,0.02,WeatherDisplay:10.37,2016-09-28 13:06:00,
2016-09-28 15:11:00,68.6,60.7,30.25,WSW,257,18.4,18.4,76,0.00,CLR,,0.02,WeatherDisplay:10.37,2016-09-28 13:11:00,
2016-09-28 15:16:00,68.8,60.6,30.25,WNW,300,16.1,16.1,75,0.00,CLR,,0.02,WeatherDisplay:10.37,2016-09-28 13:16:00,
2016-09-28 15:21:00,68.6,60.4,30.25,WSW,240,17.0,17.0,75,0.00,CLR,,0.02,WeatherDisplay:10.37,2016-09-28 13:21:00,
2016-09-28 15:26:00,68.3,60.4,30.24,WSW,250,17.3,17.3,76,0.00,CLR,,0.02,WeatherDisplay:10.37,2016-09-28 13:26:00,
2016-09-28 15:31:00,68.3,60.1,30.25,SW,234,19.6,19.6,75,0.00,CLR,,0.02,WeatherDisplay:10.37,2016-09-28 13:31:00,
2016-09-28 15:36:00,68.2,60.0,30.24,WSW,250,17.3,17.3,75,0.00,CLR,,0.02,WeatherDisplay:10.37,2016-09-28 13:36:00,
2016-09-28 15:41:00,68.0,60.2,30.24,SW,221,16.1,16.1,76,0.00,CLR,,0.02,WeatherDisplay:10.37,2016-09-28 13:41:00,
2016-09-28 15:46:00,67.9,60.1,30.24,WSW,237,17.3,17.3,76,0.00,CLR,,0.02,WeatherDisplay:10.37,2016-09-28 13:46:00,
2016-09-28 15:51:00,67.6,59.4,30.24,NW,316,16.1,16.1,75,0.00,CLR,,0.02,WeatherDisplay:10.37,2016-09-28 13:51:00,
2016-09-28 15:57:00,67.6,59.4,30.24,WSW,250,19.6,19.6,75,0.00,CLR,,0.02,WeatherDisplay:10.37,2016-09-28 13:57:00,
2016-09-28 16:02:00,67.7,59.9,30.24,WSW,238,17.3,17.3,76,0.00,CLR,,0.02,WeatherDisplay:10.37,2016-09-28 14:02:00,
2016-09-28 16:07:00,68.0,59.8,30.24,West,277,11.5,11.5,75,0.00,CLR,,0.02,WeatherDisplay:10.37,2016-09-28 14:07:00,
2016-09-28 16:12:00,68.2,60.3,30.24,WSW,258,13.8,13.8,76,0.00,CLR,,0.02,WeatherDisplay:10.37,2016-09-28 14:12:00,
2016-09-28 16:17:00,67.9,60.1,30.24,West,265,19.6,19.6,76,0.00,CLR,,0.02,WeatherDisplay:10.37,2016-09-28 14:17:00,
2016-09-28 16:22:00,67.7,59.9,30.24,WSW,249,18.4,18.4,76,0.00,CLR,,0.02,WeatherDisplay:10.37,2016-09-28 14:22:00,
2016-09-28 16:27:00,67.5,59.7,30.24,West,274,17.3,17.3,76,0.00,CLR,,0.02,WeatherDisplay:10.37,2016-09-28 14:27:00,
2016-09-28 16:32:00,67.4,59.6,30.24,SW,236,18.4,18.4,76,0.00,CLR,,0.02,WeatherDisplay:10.37,2016-09-28 14:32:00,
2016-09-28 16:37:00,67.5,59.3,30.23,West,266,16.1,16.1,75,0.00,CLR,,0.02,WeatherDisplay:10.37,2016-09-28 14:37:00,
2016-09-28 16:42:00,67.5,59.3,30.23,West,273,19.6,19.6,75,0.00,CLR,,0.02,WeatherDisplay:10.37,2016-09-28 14:42:00,
2016-09-28 16:47:00,67.5,59.3,30.23,SW,221,20.7,20.7,75,0.00,CLR,,0.02,WeatherDisplay:10.37,2016-09-28 14:47:00,
2016-09-28 16:52:00,67.5,59.3,30.23,WSW,238,18.4,18.4,75,0.00,CLR,,0.02,WeatherDisplay:10.37,2016-09-28 14:52:00,
2016-09-28 16:57:00,67.7,59.5,30.23,SW,221,21.9,21.9,75,0.00,CLR,,0.02,WeatherDisplay:10.37,2016-09-28 14:57:00,
2016-09-28 17:02:00,67.9,59.7,30.23,SW,227,20.7,20.7,75,0.00,CLR,,0.02,WeatherDisplay:10.37,2016-09-28 15:02:00,
2016-09-28 17:07:00,67.7,59.1,30.23,WSW,238,21.0,21.0,74,0.00,CLR,,0.02,WeatherDisplay:10.37,2016-09-28 15:07:00,
2016-09-28 17:12:00,67.7,59.1,30.23,SW,229,18.4,18.4,74,0.00,CLR,,0.02,WeatherDisplay:10.37,2016-09-28 15:12:00,
2016-09-28 17:17:00,67.8,59.2,30.22,WSW,237,19.6,19.6,74,0.00,CLR,,0.02,WeatherDisplay:10.37,2016-09-28 15:17:00,
2016-09-28 17:22:00,67.8,58.8,30.22,WSW,238,20.7,20.7,73,0.00,CLR,,0.02,WeatherDisplay:10.37,2016-09-28 15:22:00,
2016-09-28 17:27:00,68.0,59.4,30.22,SW,221,19.6,19.6,74,0.00,CLR,,0.02,WeatherDisplay:10.37,2016-09-28 15:27:00,
2016-09-28 17:32:00,68.0,59.8,30.22,SW,232,13.8,13.8,75,0.00,CLR,,0.02,WeatherDisplay:10.37,2016-09-28 15:32:00,
2016-09-28 17:37:00,68.0,59.8,30.22,SSW,202,12.7,12.7,75,0.00,CLR,,0.02,WeatherDisplay:10.37,2016-09-28 15:37:00,
2016-09-28 17:42:00,68.4,59.8,30.22,SW,225,17.3,17.3,74,0.00,CLR,,0.02,WeatherDisplay:10.37,2016-09-28 15:42:00,
2016-09-28 17:47:00,68.7,60.1,30.22,SW,236,17.3,17.3,74,0.00,CLR,,0.02,WeatherDisplay:10.37,2016-09-28 15:47:00,
2016-09-28 17:52:00,68.5,59.9,30.22,SW,231,19.6,19.6,74,0.00,CLR,,0.02,WeatherDisplay:10.37,2016-09-28 15:52:00,
2016-09-28 18:02:00,68.2,60.0,30.21,WSW,257,20.7,20.7,75,0.00,CLR,,0.02,WeatherDisplay:10.37,2016-09-28 16:02:00,
2016-09-28 18:07:00,68.1,59.9,30.21,SW,227,18.4,18.4,75,0.00,CLR,,0.02,WeatherDisplay:10.37,2016-09-28 16:07:00,
2016-09-28 18:12:00,67.9,59.7,30.21,SW,228,23.0,23.0,75,0.00,CLR,,0.02,WeatherDisplay:10.37,2016-09-28 16:12:00,
2016-09-28 18:17:00,67.7,59.5,30.21,West,263,21.9,21.9,75,0.00,CLR,,0.02,WeatherDisplay:10.37,2016-09-28 16:17:00,
2016-09-28 18:22:00,67.6,59.8,30.22,WSW,239,20.7,20.7,76,0.00,CLR,,0.02,WeatherDisplay:10.37,2016-09-28 16:22:00,
2016-09-28 18:27:00,67.6,60.1,30.22,WSW,251,18.4,18.4,77,0.00,CLR,,0.02,WeatherDisplay:10.37,2016-09-28 16:27:00,
2016-09-28 18:32:00,67.7,60.2,30.22,WSW,241,13.8,13.8,77,0.00,CLR,,0.02,WeatherDisplay:10.37,2016-09-28 16:32:00,
2016-09-28 18:37:00,67.8,60.3,30.22,WSW,237,16.1,16.1,77,0.00,CLR,,0.02,WeatherDisplay:10.37,2016-09-28 16:37:00,
2016-09-28 18:42:00,67.6,60.5,30.21,SW,225,19.6,19.6,78,0.00,CLR,,0.02,WeatherDisplay:10.37,2016-09-28 16:42:00,
2016-09-28 18:47:00,67.5,60.0,30.22,West,264,21.0,21.0,77,0.00,CLR,,0.02,WeatherDisplay:10.37,2016-09-28 16:47:00,
2016-09-28 18:52:00,67.3,60.2,30.21,WSW,245,19.6,19.6,78,0.00,CLR,,0.02,WeatherDisplay:10.37,2016-09-28 16:52:00,
2016-09-28 18:57:00,67.2,60.5,30.22,WSW,237,16.1,16.1,79,0.00,CLR,,0.02,WeatherDisplay:10.37,2016-09-28 16:57:00,
2016-09-28 19:02:00,67.1,60.7,30.22,SW,219,17.3,17.3,80,0.00,CLR,,0.02,WeatherDisplay:10.37,2016-09-28 17:02:00,
2016-09-28 19:07:00,66.9,60.5,30.21,SSW,195,17.3,17.3,80,0.00,CLR,,0.02,WeatherDisplay:10.37,2016-09-28 17:07:00,
2016-09-28 19:12:00,66.7,60.7,30.22,WSW,248,21.9,21.9,81,0.00,CLR,,0.02,WeatherDisplay:10.37,2016-09-28 17:12:00,
2016-09-28 19:17:00,66.7,60.7,30.22,WSW,238,16.1,16.1,81,0.00,CLR,,0.02,WeatherDisplay:10.37,2016-09-28 17:17:00,
2016-09-28 19:22:00,66.6,60.6,30.21,WSW,238,16.1,16.1,81,0.00,CLR,,0.02,WeatherDisplay:10.37,2016-09-28 17:22:00,
2016-09-28 19:27:00,66.5,60.5,30.21,SW,232,23.0,23.0,81,0.00,CLR,,0.02,WeatherDisplay:10.37,2016-09-28 17:27:00,
2016-09-28 19:37:00,66.2,60.2,30.21,WSW,251,16.1,16.1,81,0.00,CLR,,0.02,WeatherDisplay:10.37,2016-09-28 17:37:00,
2016-09-28 19:48:00,66.1,60.4,30.21,South,182,15.0,15.0,82,0.00,CLR,,0.02,WeatherDisplay:10.37,2016-09-28 17:48:00,
2016-09-28 19:53:00,66.0,60.3,30.20,SW,220,12.7,12.7,82,0.00,CLR,,0.02,WeatherDisplay:10.37,2016-09-28 17:53:00,
2016-09-28 19:58:00,65.9,60.2,30.21,SW,231,19.6,19.6,82,0.00,CLR,,0.02,WeatherDisplay:10.37,2016-09-28 17:58:00,
2016-09-28 20:03:00,65.8,60.2,30.21,SSW,194,20.7,20.7,82,0.00,CLR,,0.02,WeatherDisplay:10.37,2016-09-28 18:03:00,
2016-09-28 20:08:00,65.9,60.2,30.20,SW,215,11.0,11.0,82,0.00,CLR,,0.02,WeatherDisplay:10.37,2016-09-28 18:08:00,
2016-09-28 20:13:00,65.8,60.5,30.20,SW,225,17.3,17.3,83,0.00,CLR,,0.02,WeatherDisplay:10.37,2016-09-28 18:13:00,
2016-09-28 20:18:00,65.7,60.4,30.20,WSW,245,14.0,14.0,83,0.00,CLR,,0.02,WeatherDisplay:10.37,2016-09-28 18:18:00,
2016-09-28 20:23:00,65.6,60.3,30.20,SSW,200,15.0,15.0,83,0.00,CLR,,0.02,WeatherDisplay:10.37,2016-09-28 18:23:00,
2016-09-28 20:28:00,65.5,60.5,30.20,West,271,17.3,17.3,84,0.00,CLR,,0.02,WeatherDisplay:10.37,2016-09-28 18:28:00,
2016-09-28 20:33:00,65.5,60.5,30.20,West,259,19.6,19.6,84,0.00,CLR,,0.02,WeatherDisplay:10.37,2016-09-28 18:33:00,
2016-09-28 20:38:00,65.5,60.5,30.20,SW,215,12.7,12.7,84,0.00,CLR,,0.02,WeatherDisplay:10.37,2016-09-28 18:38:00,
2016-09-28 20:43:00,65.4,60.4,30.20,SW,230,15.0,15.0,84,0.00,CLR,,0.02,WeatherDisplay:10.37,2016-09-28 18:43:00,
2016-09-28 20:48:00,65.4,60.4,30.20,SW,214,12.7,12.7,84,0.00,CLR,,0.02,WeatherDisplay:10.37,2016-09-28 18:48:00,
2016-09-28 20:53:00,65.4,60.4,30.20,SW,226,13.0,13.0,84,0.00,CLR,,0.02,WeatherDisplay:10.37,2016-09-28 18:53:00,
2016-09-28 20:58:00,65.3,60.3,30.20,SW,223,17.3,17.3,84,0.00,CLR,,0.02,WeatherDisplay:10.37,2016-09-28 18:58:00,
2016-09-28 21:03:00,65.3,60.3,30.19,WSW,239,16.1,16.1,84,0.00,CLR,,0.02,WeatherDisplay:10.37,2016-09-28 19:03:00,
2016-09-28 21:08:00,65.3,60.3,30.19,SSW,205,11.5,11.5,84,0.00,CLR,,0.02,WeatherDisplay:10.37,2016-09-28 19:08:00,
2016-09-28 21:13:00,65.3,60.3,30.19,SW,217,17.3,17.3,84,0.00,CLR,,0.02,WeatherDisplay:10.37,2016-09-28 19:13:00,
2016-09-28 21:18:00,65.2,60.6,30.19,WSW,248,21.0,21.0,85,0.00,CLR,,0.02,WeatherDisplay:10.37,2016-09-28 19:18:00,
2016-09-28 21:23:00,65.2,60.6,30.18,WSW,244,11.5,11.5,85,0.00,CLR,,0.02,WeatherDisplay:10.37,2016-09-28 19:23:00,
2016-09-28 21:28:00,65.1,60.5,30.18,South,191,18.4,18.4,85,0.00,CLR,,0.02,WeatherDisplay:10.37,2016-09-28 19:28:00,
2016-09-28 21:33:00,65.1,60.5,30.18,SW,234,13.8,13.8,85,0.00,CLR,,0.02,WeatherDisplay:10.37,2016-09-28 19:33:00,
2016-09-28 21:43:00,65.0,60.7,30.18,SW,235,17.3,17.3,86,0.00,CLR,,0.02,WeatherDisplay:10.37,2016-09-28 19:43:00,
2016-09-28 21:48:00,64.9,60.3,30.18,SSW,192,16.1,16.1,85,0.00,CLR,,0.02,WeatherDisplay:10.37,2016-09-28 19:48:00,
2016-09-28 21:53:00,64.9,60.6,30.18,SW,227,9.2,9.2,86,0.00,CLR,,0.02,WeatherDisplay:10.37,2016-09-28 19:53:00,
2016-09-28 21:58:00,64.8,60.5,30.18,SW,215,12.7,12.7,86,0.00,CLR,,0.02,WeatherDisplay:10.37,2016-09-28 19:58:00,
2016-09-28 22:03:00,64.7,60.4,30.18,SSW,212,11.5,11.5,86,0.00,CLR,,0.02,WeatherDisplay:10.37,2016-09-28 20:03:00,
2016-09-28 22:08:00,64.6,60.3,30.18,West,269,13.0,13.0,86,0.00,CLR,,0.02,WeatherDisplay:10.37,2016-09-28 20:08:00,
2016-09-28 22:13:00,64.5,60.2,30.18,WSW,257,19.6,19.6,86,0.00,CLR,,0.02,WeatherDisplay:10.37,2016-09-28 20:13:00,
2016-09-28 22:18:00,64.5,60.2,30.17,WSW,244,13.8,13.8,86,0.00,CLR,,0.02,WeatherDisplay:10.37,2016-09-28 20:18:00,
2016-09-28 22:23:00,64.5,60.2,30.17,WSW,245,23.0,23.0,86,0.00,CLR,,0.02,WeatherDisplay:10.37,2016-09-28 20:23:00,
2016-09-28 22:28:00,64.5,60.2,30.17,SSW,200,12.7,12.7,86,0.00,CLR,,0.02,WeatherDisplay:10.37,2016-09-28 20:28:00,
2016-09-28 22:33:00,64.5,60.2,30.17,SW,233,12.7,12.7,86,0.00,CLR,,0.02,WeatherDisplay:10.37,2016-09-28 20:33:00,